Impacts TAF Board INFO
FOR SITUATIONAL AWARENESS. NOT TO BE USED FOR FLIGHT PLANNING PURPOSES.
IDs:

KMSP - Minneapolis-St Paul, MN, US

Issued at 0259 UTC 19 Feb 2018
Updated at 0343 UTC 19 Feb 2018
Potential Impact None Slight Moderate High
Time0253Z 19/04Z 19/05Z 19/06Z 19/07Z 19/08Z 19/09Z 19/10Z 19/11Z 19/12Z 19/13Z 19/14Z 19/15Z 19/16Z>>
Type OBS PRVL PRVL PRVL PRVL PRVL PRVL PRVL PRVL PRVL
  [PRB30]  
PRVL
  [PRB30]  
PRVL
  [PRB30]  
PRVL PRVL
VIS 10 >6 >6 >6 >6 >6 >6 >6 >6 >6
  [3]  
>6
  [3]  
>6
  [3]  
2 2
CIG 300 100 100 25 25 25 25 25 25 15
  [15]  
15
  [15]  
15
  [15]  
15 15
Cover BKN BKN BKN OVC OVC OVC OVC OVC OVC OVC
  [OVC]  
OVC
  [OVC]  
OVC
  [OVC]  
OVC OVC
FltCat VFR VFR VFR MVFR MVFR MVFR MVFR MVFR MVFR MVFR
  [MVFR]  
MVFR
  [MVFR]  
MVFR
  [MVFR]  
IFR IFR
WX -- -- -- -- -- -- -- -- -- VCSH
  [-SN BR]  
VCSH
  [-SN BR]  
VCSH
  [-SN BR]  
-SN BR -SN BR
WDir 130 VRB VRB 340 340 340 340 340 340 10
[10]
10
[10]
10
[10]
20 20
WSpd 5 5 5 12 12 12 12 12 12 16
  [16]  
16
  [16]  
16
  [16]  
15 15
WGst -- -- -- -- -- -- -- -- -- --
  [--]  
--
  [--]  
--
  [--]  
23 23

Raw TAF
KMSP 190259Z 1903/2006 VRB05KT P6SM SCT025 BKN100
  FM190600 34012KT P6SM OVC025
  FM191200 01016KT P6SM VCSH OVC015
  PROB30 1912/1915 3SM -SN BR
  FM191500 02015G23KT 2SM -SN BR OVC015
  FM200000 03013KT 4SM -SN OVC012


Raw METAR
KMSP 190253Z 13005KT 10SM FEW180 BKN300 01/M01 A2968 RMK AO2 SLP060 T00111011 51017
KMSP 190153Z 16004KT 10SM SCT190 BKN300 03/M01 A2967 RMK AO2 SLP057 T00281006
KMSP 190053Z 15005KT 10SM FEW140 FEW180 OVC300 03/M01 A2965 RMK AO2 SLP052 T00331006

METAR Board
Radar Display
Forecast Discussion

FOR SITUATIONAL AWARENESS. NOT TO BE USED FOR FLIGHT PLANNING PURPOSES.